Terminal Aerodrome Forecast
Issued by NWS

Home | Current Version | Previous Version | Text Only | Print | Product List | Glossary On
Versions: 1 2 3 4 5 6 7 8 9 10 11 12 13 14 15 16 17 18
000
FTUS43 KGRB 101722
TAFATW
TAF
KATW 101722Z 1018/1118 29010KT P6SM SCT028 BKN050
      TEMPO 1018/1020 BKN028
     FM110200 VRB03KT P6SM -SN OVC040
     FM110300 VRB03KT P6SM -SN OVC025
     FM110500 VRB03KT 2SM -SN OVC020
      TEMPO 1106/1110 1 1/2SM -SN OVC013
     FM111500 10006KT 3/4SM -SN OVC010=

USA.gov is the U.S. government's official web portal to all federal, state and local government web resources and services.